KUGN/UGN METAR and TAF weather

Enter ICAO airport designator
Station Type Date Time Source
KUGN METAR 2020/10/20 17:55 UTC NOAA

KUGN 201755Z 11009KT 10SM BKN020 OVC025 08/04 A3021 RMK AO2 SLP238 T00830044 10089 20044 58020


Station Type Date Time Source
KUGN Decoded METAR 2020/10/20 17:55 UTC NOAA

CHICAGO/WAUKEGAN REGIONAL, IL, United States (KUGN) 42-25N 087-52W
Oct 20, 2020 - 01:55 PM EDT / 2020.10.20 1755 UTC
Wind: from the ESE (110 degrees) at 10 MPH (9 KT):0
Visibility: 10 mile(s):0
Sky conditions: overcast
Temperature: 46.9 F (8.3 C)
Dew Point: 39.9 F (4.4 C)
Relative Humidity: 76%
Pressure (altimeter): 30.21 in. Hg (1023 hPa)
Pressure tendency: 0.06 inches (2.0 hPa) lower than three hours ago
ob: KUGN 201755Z 11009KT 10SM BKN020 OVC025 08/04 A3021 RMK AO2 SLP238 T00830044 10089 20044 58020
cycle: 18

Station Type Date Time Source
KUGN TAF UTC NOAA

Error!

Example: see airport list